This is the latest recevied weather packets stored in our database for station/object EW1958. If no packets are shown the sender has not sent any weather packets the latest 10 day(s).
| Time | Temp. | Humidity | Pressure | Rain* | Wind** | Luminosity | Snow |
|---|---|---|---|---|---|---|---|
| 1788571267 | 12.78° C | 94% | 1018.2 hPa | 6.86 mm | - | - | - |
| 1788571093 | 12.78° C | 93% | 1018.1 hPa | 6.6 mm | - | - | - |
| 1788570796 | 12.78° C | 92% | 1018.1 hPa | 6.6 mm | - | - | - |
| 1788570494 | 12.78° C | 92% | 1018.1 hPa | 6.1 mm | - | - | - |
| 1788570066 | 12.78° C | 91% | 1018.1 hPa | 5.33 mm | - | - | - |
| 1788569765 | 12.78° C | 90% | 1018.1 hPa | 4.83 mm | - | - | - |
| 1788569463 | 13.33° C | 89% | 1018.2 hPa | 4.32 mm | - | - | - |
| 1788569161 | 13.33° C | 88% | 1018.2 hPa | 3.81 mm | - | - | - |
| 1788568862 | 13.89° C | 88% | 1018.1 hPa | 3.05 mm | - | - | - |
| 1788568724 | 14.44° C | 86% | 1018.2 hPa | 2.29 mm | - | - | - |
| 1788568261 | 15° C | 85% | 1018.1 hPa | 1.78 mm | - | - | - |
| 1788567961 | 15.56° C | 82% | 1017.9 hPa | 1.27 mm | - | - | - |
| 1788567929 | 17.22° C | 78% | 1017.5 hPa | 0.51 mm | - | - | - |
| 1788567793 | 17.22° C | 78% | 1017.5 hPa | 0.51 mm | - | - | - |
| 1788567522 | 18.33° C | 72% | 1017.2 hPa | 0.25 mm | - | - | - |
| 1788567332 | 19.44° C | 66% | 1016.9 hPa | 0 mm | - | - | - |
| 1788566761 | 19.44° C | 65% | 1016.6 hPa | 0 mm | - | - | - |
| 1788566462 | 19.44° C | 64% | 1016.4 hPa | 0 mm | - | - | - |
| 1788566161 | 19.44° C | 66% | 1016.4 hPa | 0 mm | - | - | - |
| 1788565858 | 19.44° C | 66% | 1016.2 hPa | 0 mm | - | - | - |
| 1788565557 | 19.44° C | 65% | 1016.3 hPa | 0 mm | - | - | - |
| 1788565257 | 20° C | 64% | 1016.3 hPa | 0 mm | - | - | - |
| 1788565128 | 20° C | 65% | 1016.2 hPa | 0 mm | - | - | - |
| 1788565123 | 20° C | 62% | 1016.1 hPa | 0 mm | - | - | - |
| 1788564359 | 19.44° C | 62% | 1016.2 hPa | 0 mm | - | - | - |
* Rain latest hour (hover to see other rain measurements)
** Current wind speed in m/s (hover to see current wind gust speed)